createdAt,value
2018-12-26T00:00:54.111Z,16.03
2018-12-26T00:03:48.120Z,15.87
2018-12-26T00:06:38.676Z,14.20
2018-12-26T00:09:15.267Z,16.77
2018-12-26T00:15:45.944Z,15.33
2018-12-26T00:18:42.526Z,15.50
2018-12-26T00:21:27.786Z,15.27
2018-12-26T00:23:58.202Z,15.37
2018-12-26T00:26:26.067Z,15.03
2018-12-26T00:28:54.136Z,14.57
2018-12-26T00:31:21.947Z,14.20
2018-12-26T00:33:49.471Z,14.70
2018-12-26T00:36:17.321Z,14.23
2018-12-26T00:38:45.022Z,15.07
2018-12-26T00:41:12.639Z,13.53
2018-12-26T00:43:40.580Z,13.90
2018-12-26T00:46:08.795Z,13.40
2018-12-26T00:48:36.751Z,13.77
2018-12-26T00:51:05.076Z,14.10
2018-12-26T00:53:35.301Z,14.60
2018-12-26T00:56:14.591Z,10.63
2018-12-26T00:58:39.186Z,12.70
2018-12-26T01:01:12.461Z,12.70
2018-12-26T01:03:48.168Z,14.53
2018-12-26T01:06:21.617Z,13.83
2018-12-26T01:08:56.658Z,13.10
2018-12-26T01:11:24.621Z,13.93
2018-12-26T01:13:54.007Z,13.70
2018-12-26T01:16:22.250Z,13.77
2018-12-26T01:18:49.736Z,13.70
2018-12-26T01:21:17.277Z,13.57
2018-12-26T01:23:52.268Z,13.23
2018-12-26T01:26:19.788Z,14.10
2018-12-26T01:28:47.757Z,12.13
2018-12-26T01:31:15.231Z,12.97
2018-12-26T01:33:49.372Z,13.27
2018-12-26T01:36:16.911Z,13.57
2018-12-26T01:38:44.561Z,13.70
2018-12-26T01:41:12.257Z,13.37
2018-12-26T01:43:39.849Z,13.37
2018-12-26T01:46:07.972Z,13.27
2018-12-26T01:48:35.821Z,14.37
2018-12-26T01:51:03.685Z,13.60
2018-12-26T01:53:35.870Z,14.07
2018-12-26T01:56:06.232Z,12.70
2018-12-26T01:58:33.832Z,12.70
2018-12-26T02:01:03.361Z,13.57
2018-12-26T02:03:30.958Z,13.37
2018-12-26T02:06:55.607Z,14.47
2018-12-26T02:09:23.226Z,12.60
2018-12-26T02:11:50.806Z,13.30
2018-12-26T02:14:18.342Z,14.50
2018-12-26T02:16:45.956Z,14.30
2018-12-26T02:19:13.636Z,13.10
2018-12-26T02:21:41.286Z,13.83
2018-12-26T02:25:02.507Z,14.10
2018-12-26T02:27:30.044Z,14.53
2018-12-26T02:29:57.580Z,13.73
2018-12-26T02:32:25.149Z,14.50
2018-12-26T02:35:18.788Z,14.37
2018-12-26T02:37:46.484Z,14.93
2018-12-26T02:40:48.640Z,15.27
2018-12-26T02:43:21.784Z,14.50
2018-12-26T02:46:09.347Z,14.87
2018-12-26T02:48:37.037Z,14.43
2018-12-26T02:51:07.602Z,15.10
2018-12-26T02:53:35.052Z,15.10
2018-12-26T02:56:02.567Z,15.80
2018-12-26T02:58:30.229Z,16.43
2018-12-26T03:00:57.707Z,16.20
2018-12-26T03:03:25.263Z,15.17
2018-12-26T03:05:52.706Z,15.37
2018-12-26T03:08:20.281Z,15.53
2018-12-26T03:10:47.981Z,14.87
2018-12-26T03:13:15.662Z,16.13
2018-12-26T03:15:43.148Z,15.70
2018-12-26T03:18:10.652Z,15.47
2018-12-26T03:20:38.142Z,15.27
2018-12-26T03:23:05.787Z,16.47
2018-12-26T03:25:33.518Z,16.30
2018-12-26T03:28:01.372Z,16.30
2018-12-26T03:30:28.849Z,16.43
2018-12-26T03:32:56.432Z,15.83
2018-12-26T03:35:24.058Z,15.63
2018-12-26T03:37:51.532Z,15.33
2018-12-26T03:40:19.181Z,17.03
2018-12-26T03:42:47.126Z,14.50
2018-12-26T03:45:15.118Z,15.47
2018-12-26T03:47:43.691Z,17.77
2018-12-26T03:50:11.285Z,17.93
2018-12-26T03:52:38.882Z,17.70
2018-12-26T03:55:06.467Z,17.60
2018-12-26T03:57:33.960Z,18.00
2018-12-26T04:00:01.546Z,17.07
2018-12-26T04:02:29.042Z,17.73
2018-12-26T04:04:56.932Z,18.90
2018-12-26T04:07:24.527Z,18.47
2018-12-26T04:09:52.093Z,16.13
2018-12-26T04:12:19.765Z,18.03
2018-12-26T04:14:47.348Z,19.03
2018-12-26T04:17:14.994Z,18.13
2018-12-26T04:19:42.877Z,20.37
2018-12-26T04:22:10.461Z,19.40
2018-12-26T04:24:38.148Z,18.73
2018-12-26T04:27:15.270Z,19.97
2018-12-26T04:29:35.122Z,19.37
2018-12-26T04:32:02.740Z,18.50
2018-12-26T04:34:30.234Z,18.57
2018-12-26T04:36:57.758Z,19.10
2018-12-26T04:39:25.791Z,20.00
2018-12-26T04:41:53.249Z,18.43
2018-12-26T04:44:20.862Z,17.50
2018-12-26T04:46:48.356Z,19.10
2018-12-26T04:49:15.831Z,19.47
2018-12-26T04:51:43.318Z,17.40
2018-12-26T04:54:11.123Z,19.17
2018-12-26T04:56:38.652Z,19.60
2018-12-26T04:59:06.337Z,18.53
2018-12-26T05:01:33.933Z,18.90
2018-12-26T05:04:01.468Z,19.37
2018-12-26T05:06:28.969Z,20.20
2018-12-26T05:08:56.562Z,20.23
2018-12-26T05:11:24.334Z,20.90
2018-12-26T05:13:51.936Z,19.67
2018-12-26T05:16:19.900Z,18.70
2018-12-26T05:18:47.527Z,20.63
2018-12-26T05:21:15.211Z,20.27
2018-12-26T05:23:42.905Z,19.87
2018-12-26T05:26:10.603Z,21.50
2018-12-26T05:28:38.224Z,20.77
2018-12-26T05:31:05.822Z,21.50
2018-12-26T05:33:33.346Z,22.00
2018-12-26T05:36:00.856Z,20.37
2018-12-26T05:38:28.672Z,20.07
2018-12-26T05:40:56.164Z,21.27
2018-12-26T05:43:23.786Z,20.57
2018-12-26T05:45:51.352Z,21.53
2018-12-26T05:48:18.902Z,19.63
2018-12-26T05:50:46.407Z,23.13
2018-12-26T05:53:13.881Z,22.93
2018-12-26T05:55:53.062Z,22.63
2018-12-26T05:58:21.368Z,25.13
2018-12-26T06:00:49.052Z,23.03
2018-12-26T06:03:16.622Z,24.53
2018-12-26T06:05:44.221Z,26.13
2018-12-26T06:08:11.882Z,25.27
2018-12-26T06:10:39.562Z,25.03
2018-12-26T06:13:07.231Z,25.40
2018-12-26T06:15:34.786Z,25.83
2018-12-26T06:18:02.305Z,25.60
2018-12-26T06:20:31.431Z,27.07
2018-12-26T06:22:58.947Z,26.53
2018-12-26T06:25:26.586Z,23.27
2018-12-26T06:27:54.091Z,30.17
2018-12-26T06:30:21.687Z,20.83
2018-12-26T06:32:49.296Z,27.73
2018-12-26T06:35:16.870Z,27.57
2018-12-26T06:37:44.446Z,28.90
2018-12-26T06:40:13.061Z,28.60
2018-12-26T06:42:40.668Z,28.43
2018-12-26T06:45:08.531Z,20.37
2018-12-26T06:47:36.067Z,27.47
2018-12-26T06:50:04.867Z,28.53
2018-12-26T06:52:32.346Z,25.70
2018-12-26T06:54:59.892Z,27.03
2018-12-26T06:57:27.331Z,26.70
2018-12-26T06:59:54.925Z,28.27
2018-12-26T07:02:22.446Z,28.73
2018-12-26T07:04:49.935Z,27.87
2018-12-26T07:07:17.496Z,18.60
2018-12-26T07:09:45.011Z,30.37
2018-12-26T07:12:12.622Z,31.00
2018-12-26T07:14:40.176Z,31.43
2018-12-26T07:17:09.000Z,31.17
2018-12-26T07:19:36.951Z,29.10
2018-12-26T07:22:05.917Z,27.93
2018-12-26T07:24:33.576Z,27.83
2018-12-26T07:27:01.688Z,30.00
2018-12-26T07:29:29.617Z,29.70
2018-12-26T07:31:57.189Z,28.43
2018-12-26T07:34:24.878Z,30.80
2018-12-26T07:36:52.647Z,29.40
2018-12-26T07:39:20.467Z,24.00
2018-12-26T07:41:48.266Z,29.83
2018-12-26T07:44:15.922Z,27.77
2018-12-26T07:46:43.471Z,29.33
2018-12-26T07:49:11.041Z,31.77
2018-12-26T07:51:38.728Z,30.27
2018-12-26T07:54:06.585Z,31.80
2018-12-26T07:56:34.622Z,29.53
2018-12-26T07:59:02.351Z,31.03
2018-12-26T08:01:30.112Z,30.30
2018-12-26T08:03:57.646Z,27.97
2018-12-26T08:06:25.282Z,30.23
2018-12-26T08:08:54.000Z,25.63
2018-12-26T08:11:21.507Z,27.97
2018-12-26T08:13:48.992Z,29.47
2018-12-26T08:16:16.586Z,28.03
2018-12-26T08:18:44.382Z,28.73
2018-12-26T08:21:12.042Z,30.20
2018-12-26T08:23:41.277Z,32.17
2018-12-26T08:26:08.905Z,30.27
2018-12-26T08:28:36.529Z,30.13
2018-12-26T08:34:33.581Z,26.90
2018-12-26T08:37:04.115Z,28.33
2018-12-26T08:43:33.157Z,29.47
2018-12-26T08:46:01.027Z,28.10
2018-12-26T08:48:28.647Z,27.70
2018-12-26T08:50:56.251Z,28.93
2018-12-26T08:53:28.466Z,27.27
2018-12-26T09:01:52.137Z,27.93
2018-12-26T09:04:23.530Z,26.23
2018-12-26T09:21:55.238Z,27.67
2018-12-26T09:24:25.916Z,30.77
2018-12-26T09:26:54.993Z,25.03
2018-12-26T09:29:37.536Z,29.13
2018-12-26T09:32:54.264Z,28.00
2018-12-26T09:35:22.133Z,25.97
2018-12-26T09:39:29.351Z,26.90
2018-12-26T09:41:30.079Z,29.57
2018-12-26T09:44:01.119Z,29.33
2018-12-26T09:50:10.310Z,28.00
2018-12-26T09:53:14.484Z,29.27
2018-12-26T09:55:54.254Z,28.93
2018-12-26T09:58:34.435Z,28.67
2018-12-26T10:19:43.800Z,30.07
2018-12-26T10:22:59.949Z,22.23
2018-12-26T10:36:54.785Z,26.70
2018-12-26T10:40:31.757Z,26.63
2018-12-26T10:46:47.507Z,28.20
2018-12-26T10:49:41.079Z,28.53
2018-12-26T10:52:10.551Z,28.67
2018-12-26T10:57:41.594Z,28.73
2018-12-26T11:00:18.979Z,29.40
2018-12-26T11:20:58.948Z,29.93
2018-12-26T11:28:13.652Z,29.80
2018-12-26T11:34:35.468Z,26.67
2018-12-26T11:37:02.891Z,28.53
2018-12-26T11:39:30.418Z,27.97
2018-12-26T11:41:57.884Z,25.70
2018-12-26T11:44:25.915Z,27.13
2018-12-26T11:46:56.970Z,29.50
2018-12-26T11:49:25.811Z,26.33
2018-12-26T11:51:53.246Z,28.63
2018-12-26T11:54:20.731Z,27.23
2018-12-26T11:56:48.140Z,28.20
2018-12-26T11:59:15.591Z,28.43
2018-12-26T12:01:43.096Z,26.73
2018-12-26T12:04:10.556Z,28.83
2018-12-26T12:06:37.961Z,27.33
2018-12-26T12:12:46.370Z,26.20
2018-12-26T12:15:16.460Z,27.27
2018-12-26T12:18:50.990Z,28.40
2018-12-26T12:21:18.941Z,25.67
2018-12-26T12:23:46.931Z,25.00
2018-12-26T12:26:20.405Z,24.60
2018-12-26T12:28:47.956Z,27.40
2018-12-26T12:39:15.647Z,26.80
2018-12-26T12:41:43.151Z,25.00
2018-12-26T12:44:10.606Z,26.30
2018-12-26T12:46:38.191Z,25.20
2018-12-26T12:49:05.667Z,28.23
2018-12-26T12:51:33.142Z,27.63
2018-12-26T12:54:00.547Z,27.53
2018-12-26T12:56:28.022Z,26.50
2018-12-26T12:58:55.426Z,27.80
2018-12-26T13:01:22.950Z,29.03
2018-12-26T13:03:50.440Z,29.00
2018-12-26T13:06:17.946Z,27.03
2018-12-26T13:08:45.390Z,27.13
2018-12-26T13:11:12.960Z,26.97
2018-12-26T13:13:40.645Z,26.77
2018-12-26T13:16:08.609Z,28.60
2018-12-26T13:18:36.329Z,27.40
2018-12-26T13:21:07.480Z,27.20
2018-12-26T13:23:34.946Z,27.97
2018-12-26T13:26:02.484Z,25.07
2018-12-26T13:28:29.916Z,26.50
2018-12-26T13:31:05.075Z,27.03
2018-12-26T13:33:30.136Z,25.30
2018-12-26T13:35:57.615Z,26.83
2018-12-26T13:38:25.036Z,26.60
2018-12-26T13:40:54.588Z,27.23
2018-12-26T13:43:22.155Z,24.60
2018-12-26T13:45:50.540Z,29.17
2018-12-26T13:49:27.598Z,26.00
2018-12-26T13:52:12.709Z,27.80
2018-12-26T13:55:24.876Z,24.83
2018-12-26T13:57:52.885Z,27.00
2018-12-26T14:00:23.476Z,27.57
2018-12-26T14:02:58.405Z,28.70
2018-12-26T14:05:34.551Z,28.43
2018-12-26T14:08:07.549Z,25.57
2018-12-26T14:10:36.004Z,29.50
2018-12-26T14:13:03.711Z,29.47
2018-12-26T14:15:31.767Z,29.73
2018-12-26T14:18:00.698Z,28.30
2018-12-26T14:20:40.406Z,28.13
2018-12-26T14:23:08.685Z,25.07
2018-12-26T14:25:40.025Z,27.00
2018-12-26T14:28:43.147Z,25.13
2018-12-26T14:31:11.255Z,25.07
2018-12-26T14:33:43.344Z,25.30
2018-12-26T14:36:11.284Z,30.27
2018-12-26T14:38:48.226Z,27.53
2018-12-26T14:41:16.225Z,26.37
2018-12-26T14:43:43.966Z,27.97
2018-12-26T14:46:11.731Z,25.20
2018-12-26T14:48:39.690Z,28.17
2018-12-26T14:54:46.563Z,26.40
2018-12-26T15:00:39.859Z,27.63
2018-12-26T15:03:12.019Z,27.37
2018-12-26T15:05:39.954Z,28.83
2018-12-26T15:08:28.699Z,31.68
2018-12-26T15:11:13.442Z,30.60
2018-12-26T15:14:59.742Z,30.53
2018-12-26T15:17:32.598Z,29.67
2018-12-26T15:20:03.990Z,30.33
2018-12-26T15:23:19.024Z,27.27
2018-12-26T15:25:47.974Z,24.70
2018-12-26T15:29:17.275Z,26.97
2018-12-26T15:31:47.745Z,28.07
2018-12-26T15:34:15.669Z,28.27
2018-12-26T15:36:43.519Z,29.17
2018-12-26T15:39:11.560Z,27.63
2018-12-26T15:41:39.280Z,27.83
2018-12-26T15:44:07.105Z,26.77
2018-12-26T15:46:35.118Z,26.03
2018-12-26T15:49:04.559Z,23.53
2018-12-26T15:51:50.264Z,25.83
2018-12-26T15:54:18.843Z,26.27
2018-12-26T16:01:16.769Z,26.70
2018-12-26T16:03:28.409Z,24.80
2018-12-26T16:09:44.734Z,27.93
2018-12-26T16:12:10.849Z,27.30
2018-12-26T16:14:36.411Z,27.27
2018-12-26T16:17:04.505Z,27.87
2018-12-26T16:19:32.181Z,26.20
2018-12-26T16:21:59.794Z,27.37
2018-12-26T16:24:29.724Z,25.57
2018-12-26T16:27:02.935Z,26.73
2018-12-26T16:29:30.820Z,29.13
2018-12-26T16:31:58.625Z,26.03
2018-12-26T16:34:26.321Z,28.23
2018-12-26T16:36:53.741Z,22.87
2018-12-26T16:39:21.551Z,24.90
2018-12-26T16:41:49.004Z,28.53
2018-12-26T16:44:16.510Z,29.00
2018-12-26T16:46:44.804Z,28.50
2018-12-26T16:49:12.696Z,18.10
2018-12-26T16:51:40.422Z,26.67
2018-12-26T16:54:07.810Z,23.33
2018-12-26T16:56:35.541Z,27.37
2018-12-26T16:59:02.917Z,30.47
2018-12-26T17:01:30.465Z,27.50
2018-12-26T17:03:57.970Z,29.00
2018-12-26T17:06:25.545Z,29.20
2018-12-26T17:08:53.080Z,27.17
2018-12-26T17:11:20.571Z,26.00
2018-12-26T17:13:48.039Z,25.43
2018-12-26T17:16:15.716Z,23.33
2018-12-26T17:18:43.732Z,25.30
2018-12-26T17:21:11.496Z,28.10
2018-12-26T17:23:41.225Z,28.23
2018-12-26T17:26:09.159Z,26.43
2018-12-26T17:28:37.626Z,24.63
2018-12-26T17:31:06.861Z,24.33
2018-12-26T17:33:34.926Z,24.37
2018-12-26T17:36:02.777Z,24.90
2018-12-26T17:38:31.776Z,26.70
2018-12-26T17:40:59.920Z,26.40
2018-12-26T17:43:27.584Z,24.60
2018-12-26T17:45:58.325Z,23.67
2018-12-26T17:48:26.075Z,27.20
2018-12-26T17:50:54.099Z,25.67
2018-12-26T17:53:45.480Z,24.63
2018-12-26T17:56:24.720Z,24.03
2018-12-26T17:58:58.580Z,27.07
2018-12-26T18:01:35.124Z,24.60
2018-12-26T18:04:03.390Z,24.73
2018-12-26T18:06:31.121Z,25.63
2018-12-26T18:08:58.799Z,27.67
2018-12-26T18:11:26.440Z,26.33
2018-12-26T18:13:54.330Z,23.03
2018-12-26T18:16:22.071Z,26.53
2018-12-26T18:18:49.736Z,24.73
2018-12-26T18:21:17.510Z,25.20
2018-12-26T18:23:45.149Z,26.00
2018-12-26T18:26:13.156Z,32.33
2018-12-26T18:28:40.766Z,25.37
2018-12-26T18:31:09.050Z,26.03
2018-12-26T18:33:36.970Z,26.73
2018-12-26T18:36:04.873Z,25.83
2018-12-26T18:38:32.770Z,27.13
2018-12-26T18:41:00.576Z,25.53
2018-12-26T18:43:28.474Z,25.27
2018-12-26T18:45:56.198Z,26.80
2018-12-26T18:48:23.881Z,27.07
2018-12-26T18:50:52.121Z,27.03
2018-12-26T18:53:19.903Z,25.90
2018-12-26T18:55:47.630Z,26.87
2018-12-26T18:58:16.701Z,25.47
2018-12-26T19:00:44.506Z,25.83
2018-12-26T19:03:12.565Z,23.73
2018-12-26T19:05:40.606Z,25.40
2018-12-26T19:08:09.552Z,25.43
2018-12-26T19:10:37.729Z,22.17
2018-12-26T19:13:05.641Z,24.63
2018-12-26T19:15:33.938Z,24.13
2018-12-26T19:21:03.325Z,23.00
2018-12-26T19:23:32.773Z,25.73
2018-12-26T19:26:02.731Z,27.30
2018-12-26T19:28:40.755Z,28.30
2018-12-26T19:31:08.806Z,27.40
2018-12-26T19:33:38.464Z,27.50
2018-12-26T19:36:07.008Z,29.90
2018-12-26T19:38:35.357Z,27.97
2018-12-26T19:41:04.429Z,27.90
2018-12-26T19:43:37.926Z,28.60
2018-12-26T19:46:06.648Z,28.70
2018-12-26T19:48:35.432Z,26.07
2018-12-26T19:51:03.551Z,28.73
2018-12-26T19:53:32.276Z,28.10
2018-12-26T19:56:00.291Z,26.70
2018-12-26T19:58:29.318Z,27.93
2018-12-26T20:01:00.815Z,27.77
2018-12-26T20:03:29.223Z,27.93
2018-12-26T20:05:58.277Z,26.37
2018-12-26T20:08:26.247Z,28.13
2018-12-26T20:10:54.175Z,26.67
2018-12-26T20:13:23.937Z,28.23
2018-12-26T20:15:52.091Z,27.37
2018-12-26T20:18:20.151Z,28.53
2018-12-26T20:20:48.246Z,29.67
2018-12-26T20:23:16.880Z,29.57
2018-12-26T20:25:45.900Z,29.93
2018-12-26T20:28:14.020Z,28.73
2018-12-26T20:30:42.271Z,28.13
2018-12-26T20:33:28.325Z,26.97
2018-12-26T20:35:56.576Z,27.77
2018-12-26T20:38:24.771Z,26.97
2018-12-26T20:40:53.111Z,29.93
2018-12-26T20:43:21.282Z,26.33
2018-12-26T20:45:49.568Z,26.63
2018-12-26T20:48:17.820Z,27.70
2018-12-26T20:50:45.981Z,27.30
2018-12-26T20:53:14.575Z,26.40
2018-12-26T21:19:03.849Z,23.33
2018-12-26T23:45:12.279Z,19.63
2018-12-26T23:47:40.011Z,21.07
2018-12-26T23:50:13.143Z,20.60
2018-12-26T23:52:41.165Z,21.30
2018-12-26T23:55:08.786Z,21.83
2018-12-26T23:57:37.649Z,21.67
